Los Angeles, California
Current Conditions -  °F | °C
As of 4:47 PM on Wednesday 26 Nov 2014 (Local Time) from KCQT Reporting Station
Clear Clear  
Wind Chill: 23°   Ceiling: Unl
Heat Index: 23°   Visibility: 10mi
Dew Point: -3°   Wind: 3mph
Humidity: 17%   Direction: 280°W
Pressure: 30.12"   Gusts: NA
Location:  34.05°N, 118.24°W
Report Text: KCQT 270047Z AUTO 28003KT 10SM CLR 23/M03 A3012 RMK AO2 SLP198 T02331033
Loading
Personal Weather Stations






























Interactive Weather Map New forecast layout! Learn more

10-Day Weather Forecast

Advertisements
Track Severe Weather on mobile